UKWW/VIN METAR and TAF weather

Enter ICAO airport designator
Station Type Date Time Source
UKWW METAR 2018/12/11 19:30 UTC NOAA

UKWW 111930Z 31004MPS 9999 FEW020CB BKN100 M00/M01 Q1013 R31/320050 NOSIG


Station Type Date Time Source
UKWW Decoded METAR 2018/12/11 19:30 UTC NOAA

Station name not available
Dec 11, 2018 - 02:30 PM EST / 2018.12.11 1930 UTC
Wind: from the NW (310 degrees) at 9 MPH (8 KT):0
Visibility: greater than 7 mile(s):0
Sky conditions: mostly cloudy
Weather: Cumulonimbus clouds observed
Temperature: 32 F (0 C)
Windchill: 24 F (-4 C):1
Dew Point: 30 F (-1 C)
Relative Humidity: 92%
Pressure (altimeter): 29.91 in. Hg (1013 hPa)
ob: UKWW 111930Z 31004MPS 9999 FEW020CB BKN100 M00/M01 Q1013 R31/320050 NOSIG
cycle: 19

Station Type Date Time Source
UKWW TAF 2010/03/21 10:45 UTC NOAA

TAF UKWW 211045Z 2112/2212 24005G10MPS 9999 SCT020 BKN070
TEMPO 2115/2207 1400 -SHRA BR SCT004 BKN007CB
FM220700 34007G12MPS 9999 SCT015 BKN100 TX11/2112Z TN01/2204Z


Example: see airport list